Time;durP1;ratioP1;P1;durP2;ratioP2;P2;SDS_P1;SDS_P2;PMS_P1;PMS_P2;Temp;Humidity;BMP_temperature;BMP_pressure;BME280_temperature;BME280_humidity;BME280_pressure;Samples;Min_cycle;Max_cycle;Signal;HPM_P1;HPM_P2
2023/09/05 00:01:58;;;;;;;;;;;;;;;17.14;83.55;101953.81;5064050;28;1294;-82
2023/09/05 00:04:24;;;;;;;;;;;;;;;17.11;83.82;101954.09;5054890;28;1257;-80
2023/09/05 00:06:49;;;;;;;;;;;;;;;17.11;83.94;101958.53;5055393;28;1224;-82
2023/09/05 00:09:17;;;;;;;;;;;;;;;17.10;84.11;101959.50;5064173;28;1321;-81
2023/09/05 00:11:43;;;;;;;;;;;;;;;17.05;83.78;101959.09;5053968;28;1971;-82
2023/09/05 00:14:10;;;;;;;;;;;;;;;17.01;83.92;101952.47;5067446;28;1227;-82
2023/09/05 00:16:35;;;;;;;;;;;;;;;16.97;84.40;101952.75;5050098;28;1362;-81
2023/09/05 00:19:01;;;;;;;;;;;;;;;16.97;84.53;101958.00;5063751;28;1360;-82
2023/09/05 00:21:26;;;;;;;;;;;;;;;16.96;84.63;101966.81;5066760;28;1332;-81
2023/09/05 00:23:51;;;;;;;;;;;;;;;16.95;84.65;101970.41;5062889;28;1542;-82
2023/09/05 00:26:16;;;;;;;;;;;;;;;16.94;84.71;101963.50;5065858;28;1134;-82
2023/09/05 00:28:42;;;;;;;;;;;;;;;16.90;84.98;101966.53;5063084;28;1069;-83
2023/09/05 00:31:08;;;;;;;;;;;;;;;16.87;84.99;101972.91;5047212;28;1930;-82
2023/09/05 00:33:33;;;;;;;;;;;;;;;16.85;85.03;101974.81;5054959;28;1171;-82
2023/09/05 00:35:58;;;;;;;;;;;;;;;16.85;85.30;101981.84;5065579;28;1074;-82
2023/09/05 00:38:23;;;;;;;;;;;;;;;16.84;85.48;101982.81;5053153;28;1333;-82
2023/09/05 00:40:49;;;;;;;;;;;;;;;16.82;85.63;101990.81;5065818;28;1177;-82
2023/09/05 00:43:15;;;;;;;;;;;;;;;16.80;85.69;101995.34;5052356;28;1197;-82
2023/09/05 00:45:43;;;;;;;;;;;;;;;16.79;85.79;101990.25;5047129;28;1152;-80
2023/09/05 00:48:09;;;;;;;;;;;;;;;16.78;85.54;101989.44;5050817;28;1330;-81
2023/09/05 00:50:34;;;;;;;;;;;;;;;16.75;85.67;101994.13;5059584;28;1934;-82
2023/09/05 00:53:00;;;;;;;;;;;;;;;16.72;86.10;101993.41;5062720;28;1091;-81
2023/09/05 00:55:26;;;;;;;;;;;;;;;16.71;86.58;101983.09;5040847;28;1617;-82
2023/09/05 00:57:52;;;;;;;;;;;;;;;16.72;86.37;101989.97;5046775;28;1218;-82
2023/09/05 01:00:17;;;;;;;;;;;;;;;16.72;86.29;101989.97;5060843;28;1085;-82
2023/09/05 01:02:43;;;;;;;;;;;;;;;16.72;86.22;101982.13;5060314;28;1146;-83
2023/09/05 01:05:08;;;;;;;;;;;;;;;16.73;86.27;101981.16;5061253;28;1071;-82
2023/09/05 01:07:45;;;;;;;;;;;;;;;16.72;86.30;101974.25;5065821;28;1024;-81
2023/09/05 01:10:11;;;;;;;;;;;;;;;16.75;86.45;101979.25;5059390;28;1257;-82
2023/09/05 01:12:36;;;;;;;;;;;;;;;16.76;86.58;101980.88;5048336;28;1914;-81
2023/09/05 01:15:02;;;;;;;;;;;;;;;16.76;86.29;101974.81;5059538;28;1224;-81
2023/09/05 01:17:27;;;;;;;;;;;;;;;16.75;86.43;101981.03;5067291;28;1248;-81
2023/09/05 01:19:55;;;;;;;;;;;;;;;16.74;86.33;101977.56;5052581;28;1477;-81
2023/09/05 01:22:43;;;;;;;;;;;;;;;16.75;86.29;101974.00;5061056;28;1372;-82
2023/09/05 01:25:11;;;;;;;;;;;;;;;16.74;86.42;101982.78;5066345;28;1302;-81
2023/09/05 01:27:36;;;;;;;;;;;;;;;16.72;86.78;101974.25;5065457;28;1291;-82
2023/09/05 01:30:05;;;;;;;;;;;;;;;16.72;86.58;101984.75;5066722;28;1211;-81
2023/09/05 01:32:30;;;;;;;;;;;;;;;16.70;86.41;101986.66;5063432;28;1983;-82
2023/09/05 01:34:55;;;;;;;;;;;;;;;16.68;86.62;101978.06;5065581;28;1357;-82
2023/09/05 01:37:21;;;;;;;;;;;;;;;16.66;86.72;101980.84;5063560;28;1377;-82
2023/09/05 01:39:46;;;;;;;;;;;;;;;16.65;86.80;101970.50;5066779;28;1028;-82
2023/09/05 01:42:11;;;;;;;;;;;;;;;16.64;87.12;101971.47;5052374;28;1166;-82
2023/09/05 01:44:38;;;;;;;;;;;;;;;16.64;86.88;101971.47;5066844;28;1239;-82
2023/09/05 01:47:04;;;;;;;;;;;;;;;16.63;86.99;101964.56;5068668;28;1247;-81
2023/09/05 01:49:29;;;;;;;;;;;;;;;16.60;87.13;101964.84;5050890;28;1207;-82
2023/09/05 01:51:54;;;;;;;;;;;;;;;16.63;87.26;101967.19;5065069;28;1890;-82
2023/09/05 01:54:19;;;;;;;;;;;;;;;16.59;87.01;101968.44;5066931;28;1417;-82
2023/09/05 01:56:44;;;;;;;;;;;;;;;16.58;87.58;101961.53;5064389;28;1338;-81
2023/09/05 01:59:10;;;;;;;;;;;;;;;16.58;87.76;101966.78;5066640;28;1342;-82
2023/09/05 02:01:35;;;;;;;;;;;;;;;16.57;87.47;101965.09;5065575;28;1498;-82
2023/09/05 02:04:00;;;;;;;;;;;;;;;16.56;87.35;101961.66;5064841;28;1055;-83
2023/09/05 02:06:26;;;;;;;;;;;;;;;16.57;87.42;101962.47;5052784;28;1368;-82
2023/09/05 02:08:51;;;;;;;;;;;;;;;16.58;87.10;101961.53;5060382;28;1267;-82
2023/09/05 02:11:16;;;;;;;;;;;;;;;16.58;87.18;101962.38;5067720;28;1898;-81
2023/09/05 02:13:41;;;;;;;;;;;;;;;16.56;87.77;101958.22;5069568;28;1274;-82
2023/09/05 02:16:07;;;;;;;;;;;;;;;16.58;87.54;101961.53;5061914;28;1485;-82
2023/09/05 02:18:32;;;;;;;;;;;;;;;16.58;87.26;101961.53;5065866;28;1223;-82
2023/09/05 02:20:58;;;;;;;;;;;;;;;16.56;87.45;101952.97;5062863;28;1261;-82
2023/09/05 02:23:24;;;;;;;;;;;;;;;16.52;87.10;101957.69;5060501;28;1238;-82
2023/09/05 02:25:59;;;;;;;;;;;;;;;16.49;87.43;101957.94;5053607;28;1560;-83
2023/09/05 02:28:24;;;;;;;;;;;;;;;16.48;87.99;101955.47;5066888;28;1111;-82
2023/09/05 02:30:50;;;;;;;;;;;;;;;16.41;87.86;101950.78;5063881;28;1943;-82
2023/09/05 02:33:15;;;;;;;;;;;;;;;16.34;87.75;101947.00;5050161;28;1187;-81
2023/09/05 02:35:41;;;;;;;;;;;;;;;16.32;87.99;101948.94;5055366;28;1051;-82
2023/09/05 02:38:06;;;;;;;;;;;;;;;16.27;88.43;101943.28;5067623;28;1147;-82
2023/09/05 02:40:32;;;;;;;;;;;;;;;16.21;88.43;101943.81;5051543;28;1525;-81
2023/09/05 02:42:57;;;;;;;;;;;;;;;16.17;88.32;101939.81;5059270;28;1117;-82
2023/09/05 02:45:22;;;;;;;;;;;;;;;16.17;88.46;101938.06;5054473;28;1349;-82
2023/09/05 02:47:47;;;;;;;;;;;;;;;16.15;88.50;101947.00;5064418;28;1029;-81
2023/09/05 02:50:12;;;;;;;;;;;;;;;16.12;88.62;101934.19;5062944;28;1099;-81
2023/09/05 02:52:38;;;;;;;;;;;;;;;16.10;88.56;101936.91;5060142;28;1954;-83
2023/09/05 02:55:03;;;;;;;;;;;;;;;16.08;88.65;101949.31;5049455;28;1360;-81
2023/09/05 02:57:29;;;;;;;;;;;;;;;16.07;88.81;101942.44;5066760;28;1500;-82
2023/09/05 02:59:55;;;;;;;;;;;;;;;16.00;88.80;101940.47;5065776;28;1301;-82
2023/09/05 03:02:23;;;;;;;;;;;;;;;15.96;88.87;101932.06;5068524;28;1235;-81
2023/09/05 03:04:53;;;;;;;;;;;;;;;15.93;89.09;101930.53;5048718;28;1307;-82
2023/09/05 03:07:19;;;;;;;;;;;;;;;15.87;89.44;101920.59;5067185;28;1160;-81
2023/09/05 03:09:44;;;;;;;;;;;;;;;15.81;89.27;101917.69;5066563;28;1533;-82
2023/09/05 03:12:09;;;;;;;;;;;;;;;15.75;90.25;101921.66;5044353;28;1910;-83
2023/09/05 03:14:34;;;;;;;;;;;;;;;15.71;89.91;101915.03;5067487;28;1333;-82
2023/09/05 03:17:02;;;;;;;;;;;;;;;15.68;89.50;101919.72;5067592;28;1130;-81
2023/09/05 03:19:27;;;;;;;;;;;;;;;15.68;89.70;101919.72;5059688;28;1200;-82
2023/09/05 03:21:52;;;;;;;;;;;;;;;15.66;90.54;101914.63;5063849;28;1664;-82
2023/09/05 03:24:18;;;;;;;;;;;;;;;15.66;90.21;101914.63;5064351;28;1233;-82
2023/09/05 03:26:46;;;;;;;;;;;;;;;15.66;90.43;101922.47;5063573;28;1434;-83
2023/09/05 03:29:12;;;;;;;;;;;;;;;15.62;91.03;101915.81;5067128;28;1324;-82
2023/09/05 03:31:38;;;;;;;;;;;;;;;15.60;90.34;101917.72;5066267;28;1910;-81
2023/09/05 03:34:03;;;;;;;;;;;;;;;15.56;90.43;101916.31;5065817;28;1284;-81
2023/09/05 03:36:28;;;;;;;;;;;;;;;15.56;91.03;101921.56;5059346;28;1291;-82
2023/09/05 03:38:53;;;;;;;;;;;;;;;15.53;91.49;101911.34;5055695;28;1197;-82
2023/09/05 03:41:19;;;;;;;;;;;;;;;15.51;91.25;101908.88;5062516;28;1522;-81
2023/09/05 03:43:44;;;;;;;;;;;;;;;15.52;90.70;101909.69;5066196;28;1517;-82
2023/09/05 03:46:09;;;;;;;;;;;;;;;15.49;91.10;101902.94;5066310;28;1576;-82
2023/09/05 03:48:34;;;;;;;;;;;;;;;15.46;91.46;101905.00;5065430;28;1235;-82
2023/09/05 03:50:59;;;;;;;;;;;;;;;15.44;91.42;101907.75;5063410;28;1988;-82
2023/09/05 03:53:25;;;;;;;;;;;;;;;15.39;92.01;101918.59;5052127;28;1632;-82
2023/09/05 03:55:50;;;;;;;;;;;;;;;15.35;91.51;101906.72;5053524;28;1236;-81
2023/09/05 03:58:16;;;;;;;;;;;;;;;15.37;91.68;101904.81;5061923;28;1275;-81
2023/09/05 04:00:41;;;;;;;;;;;;;;;15.40;91.81;101901.94;5051316;28;1303;-82
2023/09/05 04:03:09;;;;;;;;;;;;;;;15.34;91.66;101902.44;5051384;28;1171;-82
2023/09/05 04:05:35;;;;;;;;;;;;;;;15.32;91.97;101893.09;5048908;28;1195;-82
2023/09/05 04:08:00;;;;;;;;;;;;;;;15.31;92.22;101897.50;5045248;28;1555;-82
2023/09/05 04:10:25;;;;;;;;;;;;;;;15.31;91.91;101892.28;5057544;28;1216;-81
2023/09/05 04:12:51;;;;;;;;;;;;;;;15.30;91.89;101881.94;5067415;28;1945;-82
2023/09/05 04:15:21;;;;;;;;;;;;;;;15.27;92.76;101875.19;5050301;28;1276;-82
2023/09/05 04:17:47;;;;;;;;;;;;;;;15.27;92.18;101877.81;5057218;28;1235;-82
2023/09/05 04:20:13;;;;;;;;;;;;;;;15.27;92.03;101875.19;5049036;28;1234;-82
2023/09/05 04:22:38;;;;;;;;;;;;;;;15.30;91.74;101887.97;5047931;28;1340;-82
2023/09/05 04:25:04;;;;;;;;;;;;;;;15.29;91.94;101883.72;5066852;28;1625;-82
2023/09/05 04:27:29;;;;;;;;;;;;;;;15.31;92.14;101876.59;5064775;28;1060;-81
2023/09/05 04:29:54;;;;;;;;;;;;;;;15.32;91.73;101878.25;5069462;28;1118;-82
2023/09/05 04:32:26;;;;;;;;;;;;;;;15.33;91.55;101885.13;5060812;28;1941;-82
2023/09/05 04:34:52;;;;;;;;;;;;;;;15.34;91.95;101888.56;5060626;28;1145;-82
2023/09/05 04:37:19;;;;;;;;;;;;;;;15.32;92.02;101888.69;5051816;28;1206;-82
2023/09/05 04:39:44;;;;;;;;;;;;;;;15.28;91.68;101887.28;5055830;28;1359;-83
2023/09/05 04:42:09;;;;;;;;;;;;;;;15.29;91.61;101883.72;5062363;28;1143;-82
2023/09/05 04:44:34;;;;;;;;;;;;;;;15.25;92.07;101879.69;5065960;28;1091;-82
2023/09/05 04:47:27;;;;;;;;;;;;;;;15.25;92.08;101877.09;5064150;28;1171;-83
2023/09/05 04:49:59;;;;;;;;;;;;;;;15.24;91.80;101880.66;5059403;28;954;-82
2023/09/05 04:52:26;;;;;;;;;;;;;;;15.26;91.68;101884.00;5059246;28;1898;-82
2023/09/05 04:54:52;;;;;;;;;;;;;;;15.25;91.92;101877.09;5060995;28;900;-82
2023/09/05 04:57:17;;;;;;;;;;;;;;;15.24;92.14;101875.44;5060281;28;1076;-83
2023/09/05 04:59:43;;;;;;;;;;;;;;;15.24;91.79;101882.44;5062649;28;1297;-82
2023/09/05 05:02:09;;;;;;;;;;;;;;;15.21;91.82;101886.16;5065888;28;1081;-82
2023/09/05 05:04:34;;;;;;;;;;;;;;;15.16;92.36;101872.66;5067853;28;1270;-82
2023/09/05 05:06:59;;;;;;;;;;;;;;;15.17;92.26;101874.31;5057042;28;1200;-82
2023/09/05 05:09:25;;;;;;;;;;;;;;;15.17;92.62;101884.75;5064000;28;1121;-82
2023/09/05 05:11:50;;;;;;;;;;;;;;;15.13;92.13;101881.56;5043885;28;1980;-82
2023/09/05 05:14:15;;;;;;;;;;;;;;;15.11;92.48;101887.88;5062391;28;1147;-81
2023/09/05 05:16:43;;;;;;;;;;;;;;;15.11;92.13;101891.31;5060976;28;1296;-81
2023/09/05 05:19:09;;;;;;;;;;;;;;;15.10;92.62;101891.47;5065163;28;1271;-82
2023/09/05 05:21:35;;;;;;;;;;;;;;;15.09;92.41;101887.19;5077384;28;1219;-82
2023/09/05 05:24:00;;;;;;;;;;;;;;;15.07;92.69;101900.38;5052392;28;1425;-82
2023/09/05 05:26:25;;;;;;;;;;;;;;;15.07;92.25;101897.75;5062523;28;1128;-81
2023/09/05 05:28:51;;;;;;;;;;;;;;;15.08;92.17;101895.97;5064919;28;1549;-81
2023/09/05 05:31:16;;;;;;;;;;;;;;;15.10;92.25;101897.50;5049279;28;1990;-82
2023/09/05 05:33:41;;;;;;;;;;;;;;;15.11;92.23;101907.00;5064575;28;1191;-82
2023/09/05 05:36:06;;;;;;;;;;;;;;;15.13;92.21;101904.25;5068759;28;1517;-83
2023/09/05 05:38:31;;;;;;;;;;;;;;;15.16;92.18;101906.63;5068443;28;1275;-80
2023/09/05 05:40:58;;;;;;;;;;;;;;;15.17;92.21;101895.22;5066559;28;1026;-82
2023/09/05 05:43:24;;;;;;;;;;;;;;;15.20;92.57;101894.97;5068905;28;1319;-82
2023/09/05 05:45:49;;;;;;;;;;;;;;;15.22;92.21;101897.44;5056925;28;1429;-82
2023/09/05 05:48:14;;;;;;;;;;;;;;;15.25;92.32;101907.63;5063069;28;1270;-83
2023/09/05 05:50:40;;;;;;;;;;;;;;;15.27;92.20;101901.31;5065907;28;1890;-82
2023/09/05 05:53:05;;;;;;;;;;;;;;;15.29;92.61;101912.47;5067694;28;1211;-83
2023/09/05 05:55:30;;;;;;;;;;;;;;;15.31;92.37;101907.09;5055627;28;1428;-82
2023/09/05 05:57:55;;;;;;;;;;;;;;;15.35;92.57;101908.50;5060020;28;1388;-82
2023/09/05 06:00:24;;;;;;;;;;;;;;;15.39;92.59;101905.50;5058190;28;1394;-83
2023/09/05 06:02:50;;;;;;;;;;;;;;;15.44;92.32;101896.47;5064342;28;1215;-81
2023/09/05 06:05:16;;;;;;;;;;;;;;;15.49;92.02;101900.34;5067842;28;1235;-82
2023/09/05 06:07:41;;;;;;;;;;;;;;;15.56;92.28;101895.41;5065116;28;1552;-82
2023/09/05 06:10:06;;;;;;;;;;;;;;;15.63;92.02;101896.56;5069511;28;1019;-82
2023/09/05 06:12:31;;;;;;;;;;;;;;;15.70;91.59;101902.91;5064366;28;1910;-81
2023/09/05 06:14:57;;;;;;;;;;;;;;;15.78;91.76;101904.88;5054802;28;1511;-81
2023/09/05 06:17:22;;;;;;;;;;;;;;;15.85;91.31;101912.06;5066565;28;1593;-83
2023/09/05 06:19:47;;;;;;;;;;;;;;;15.93;91.04;101906.16;5066751;28;1474;-81
2023/09/05 06:22:13;;;;;;;;;;;;;;;16.00;91.05;101903.81;5069137;28;1294;-82
2023/09/05 06:24:38;;;;;;;;;;;;;;;16.08;90.72;101904.00;5067855;28;1133;-82
2023/09/05 06:27:03;;;;;;;;;;;;;;;16.18;90.44;101912.72;5067219;28;1032;-83
2023/09/05 06:29:28;;;;;;;;;;;;;;;16.26;90.51;101910.22;5044514;28;1370;-83
2023/09/05 06:31:54;;;;;;;;;;;;;;;16.34;90.11;101907.75;5060802;28;1906;-82
2023/09/05 06:34:19;;;;;;;;;;;;;;;16.42;90.13;101905.28;5060719;28;1058;-82
2023/09/05 06:36:44;;;;;;;;;;;;;;;16.49;89.63;101899.50;5066652;28;1064;-82
2023/09/05 06:39:11;;;;;;;;;;;;;;;16.60;89.78;101900.19;5067980;28;1283;-82
2023/09/05 06:41:36;;;;;;;;;;;;;;;16.69;89.45;101906.41;5061274;28;1180;-82
2023/09/05 06:44:01;;;;;;;;;;;;;;;16.75;89.57;101900.63;5064339;28;1273;-83
2023/09/05 06:46:27;;;;;;;;;;;;;;;16.84;88.83;101899.78;5058715;28;1046;-82
2023/09/05 06:48:52;;;;;;;;;;;;;;;16.94;88.87;101897.97;5076753;28;1292;-81
2023/09/05 06:51:17;;;;;;;;;;;;;;;17.05;88.55;101904.03;5063138;28;1983;-83
2023/09/05 06:53:42;;;;;;;;;;;;;;;17.17;88.02;101900.28;5060500;28;1225;-82
2023/09/05 06:56:08;;;;;;;;;;;;;;;17.28;87.17;101902.75;5065984;28;1032;-83
2023/09/05 06:58:33;;;;;;;;;;;;;;;17.43;86.05;101895.22;5067958;28;1063;-82
2023/09/05 07:01:03;;;;;;;;;;;;;;;17.59;85.17;101905.09;5055483;28;951;-82
2023/09/05 07:03:29;;;;;;;;;;;;;;;17.69;84.36;101900.66;5057406;28;1270;-83
2023/09/05 07:05:54;;;;;;;;;;;;;;;17.78;84.35;101900.66;5067065;28;1360;-82
2023/09/05 07:08:19;;;;;;;;;;;;;;;17.87;84.35;101904.19;5069047;28;1228;-82
2023/09/05 07:10:47;;;;;;;;;;;;;;;17.95;82.47;101906.91;5066064;28;1894;-82
2023/09/05 07:13:12;;;;;;;;;;;;;;;18.06;82.48;101897.97;5052342;28;1289;-83
2023/09/05 07:15:37;;;;;;;;;;;;;;;18.16;83.37;101895.31;5060741;28;1087;-81
2023/09/05 07:18:03;;;;;;;;;;;;;;;18.24;83.35;101890.16;5065791;28;1187;-83
2023/09/05 07:20:30;;;;;;;;;;;;;;;18.31;82.94;101880.69;5064807;28;1212;-82
2023/09/05 07:22:55;;;;;;;;;;;;;;;18.41;81.83;101891.94;5063735;28;1186;-82
2023/09/05 07:25:22;;;;;;;;;;;;;;;18.46;80.27;101889.66;5063789;28;1227;-83
2023/09/05 07:27:48;;;;;;;;;;;;;;;18.57;80.36;101886.00;5064337;28;1286;-83
2023/09/05 07:30:15;;;;;;;;;;;;;;;18.63;79.08;101884.56;5060766;28;1560;-83
2023/09/05 07:32:40;;;;;;;;;;;;;;;18.71;80.66;101887.31;5064708;28;1886;-83
2023/09/05 07:35:05;;;;;;;;;;;;;;;18.77;79.49;101891.94;5053561;28;1354;-83
2023/09/05 07:37:30;;;;;;;;;;;;;;;18.86;79.73;101883.13;5060298;28;1373;-82
2023/09/05 07:39:55;;;;;;;;;;;;;;;18.94;80.12;101888.47;5049123;28;1306;-83
2023/09/05 07:42:21;;;;;;;;;;;;;;;19.02;79.06;101887.69;5052679;28;1378;-83
2023/09/05 07:44:46;;;;;;;;;;;;;;;19.08;78.68;101880.00;5063127;28;1246;-83
2023/09/05 07:47:11;;;;;;;;;;;;;;;19.18;79.99;101879.06;5068804;28;1139;-82
2023/09/05 07:49:38;;;;;;;;;;;;;;;19.25;78.22;101882.72;5067032;28;1254;-82
2023/09/05 07:52:04;;;;;;;;;;;;;;;19.33;77.30;101867.00;5067217;28;1967;-82
2023/09/05 07:54:29;;;;;;;;;;;;;;;19.43;78.67;101867.69;5059589;28;1004;-82
2023/09/05 07:56:54;;;;;;;;;;;;;;;19.51;78.23;101865.09;5058765;28;1276;-82
2023/09/05 07:59:20;;;;;;;;;;;;;;;19.59;77.09;101866.97;5053592;28;1216;-82
2023/09/05 08:01:45;;;;;;;;;;;;;;;19.67;77.72;101868.78;5065199;28;1286;-83
2023/09/05 08:04:10;;;;;;;;;;;;;;;19.74;77.51;101859.28;5066101;28;1059;-83
2023/09/05 08:06:35;;;;;;;;;;;;;;;19.84;76.87;101865.22;5063688;28;1299;-84
2023/09/05 08:09:01;;;;;;;;;;;;;;;19.94;76.98;101858.00;5064396;28;1283;-83
2023/09/05 08:11:26;;;;;;;;;;;;;;;20.02;75.87;101860.69;5066882;28;1906;-82
2023/09/05 08:13:51;;;;;;;;;;;;;;;20.09;76.21;101874.84;5062272;28;1737;-83
2023/09/05 08:16:17;;;;;;;;;;;;;;;20.17;75.80;101877.47;5052782;28;1143;-82
2023/09/05 08:18:42;;;;;;;;;;;;;;;20.26;75.45;101880.13;5059240;28;1158;-83
2023/09/05 08:21:07;;;;;;;;;;;;;;;20.34;75.21;101883.59;5053248;28;1620;-82
2023/09/05 08:23:33;;;;;;;;;;;;;;;20.45;73.37;101882.44;5065303;28;1137;-83
2023/09/05 08:26:00;;;;;;;;;;;;;;;20.56;72.90;101882.16;5067955;28;1395;-84
2023/09/05 08:28:26;;;;;;;;;;;;;;;20.62;73.85;101892.03;5053785;28;1449;-82
2023/09/05 08:30:54;;;;;;;;;;;;;;;20.68;72.38;101891.38;5066253;28;1890;-82
2023/09/05 08:33:19;;;;;;;;;;;;;;;20.80;72.76;101894.50;5050541;28;1188;-83
2023/09/05 08:35:44;;;;;;;;;;;;;;;20.90;72.17;101896.97;5065426;28;1144;-83
2023/09/05 08:38:09;;;;;;;;;;;;;;;21.01;72.07;101896.63;5045019;28;1333;-83
2023/09/05 08:40:35;;;;;;;;;;;;;;;21.09;72.84;101888.69;5056641;28;1133;-83
2023/09/05 08:43:01;;;;;;;;;;;;;;;21.21;72.54;101903.16;5047437;28;1247;-83
2023/09/05 08:45:29;;;;;;;;;;;;;;;21.29;71.36;101893.59;5043824;28;2370;-83
2023/09/05 08:47:54;;;;;;;;;;;;;;;21.40;71.78;101893.25;5064867;28;1494;-83
2023/09/05 08:50:19;;;;;;;;;;;;;;;21.49;70.51;101884.31;5042190;28;1195;-83
2023/09/05 08:52:46;;;;;;;;;;;;;;;21.61;69.50;101888.22;5061694;28;1910;-83
2023/09/05 08:55:12;;;;;;;;;;;;;;;21.73;70.82;101878.94;5066664;28;1105;-84
2023/09/05 08:57:40;;;;;;;;;;;;;;;21.84;67.89;101888.25;5054655;28;1445;-84
2023/09/05 09:00:09;;;;;;;;;;;;;;;21.93;68.95;101886.41;5063673;28;1570;-82
2023/09/05 09:02:38;;;;;;;;;;;;;;;22.04;68.56;101883.38;5062827;28;1105;-84
2023/09/05 09:05:03;;;;;;;;;;;;;;;22.08;68.08;101897.88;5056700;28;1300;-84
2023/09/05 09:07:29;;;;;;;;;;;;;;;22.17;67.60;101893.38;5054532;28;1262;-82
2023/09/05 09:09:55;;;;;;;;;;;;;;;22.26;68.06;101885.25;5064600;28;1517;-83
2023/09/05 09:12:30;;;;;;;;;;;;;;;22.37;67.91;101888.47;5064601;28;1921;-83
2023/09/05 09:14:55;;;;;;;;;;;;;;;22.43;65.67;101887.78;5064905;28;1327;-84
2023/09/05 09:17:23;;;;;;;;;;;;;;;22.51;66.52;101891.16;5053815;28;1214;-83
2023/09/05 09:19:49;;;;;;;;;;;;;;;22.57;63.52;101896.72;5052192;28;1449;-81
2023/09/05 09:22:14;;;;;;;;;;;;;;;22.65;65.38;101892.22;5058704;28;1333;-84
2023/09/05 09:24:39;;;;;;;;;;;;;;;22.75;65.21;101887.47;5055547;28;1082;-82
2023/09/05 09:27:05;;;;;;;;;;;;;;;22.84;63.93;101888.22;5054002;28;1244;-83
2023/09/05 09:29:31;;;;;;;;;;;;;;;22.96;64.80;101888.63;5063054;28;1274;-83
2023/09/05 09:32:06;;;;;;;;;;;;;;;23.09;64.56;101891.47;5064917;28;1894;-83
2023/09/05 09:34:32;;;;;;;;;;;;;;;23.17;63.24;101894.06;5062815;28;1446;-83
2023/09/05 09:36:58;;;;;;;;;;;;;;;23.24;64.31;101892.31;5057642;28;1047;-83
2023/09/05 09:39:24;;;;;;;;;;;;;;;23.35;63.20;101892.84;5062952;28;1263;-82
2023/09/05 09:41:49;;;;;;;;;;;;;;;23.42;63.85;101893.75;5061139;28;1108;-83
2023/09/05 09:44:25;;;;;;;;;;;;;;;23.48;62.92;101893.03;5052423;28;1451;-82
2023/09/05 09:46:51;;;;;;;;;;;;;;;23.57;62.87;101886.63;5062851;28;1620;-83
2023/09/05 09:49:16;;;;;;;;;;;;;;;23.67;63.17;101887.16;5048914;28;1226;-84
2023/09/05 09:51:42;;;;;;;;;;;;;;;23.73;62.54;101875.81;5060898;28;1906;-83
2023/09/05 09:54:09;;;;;;;;;;;;;;;23.80;63.21;101883.88;5047953;28;1220;-84
2023/09/05 09:56:35;;;;;;;;;;;;;;;23.91;61.88;101887.84;5060416;28;1275;-84
2023/09/05 09:59:01;;;;;;;;;;;;;;;23.99;62.47;101895.69;5055454;28;1334;-83
2023/09/05 10:01:26;;;;;;;;;;;;;;;24.08;60.16;101900.66;5063352;28;1286;-83
2023/09/05 10:03:52;;;;;;;;;;;;;;;24.14;61.03;101901.75;5063745;28;1258;-82
2023/09/05 10:06:18;;;;;;;;;;;;;;;24.23;60.24;101903.28;5060868;28;1153;-84
2023/09/05 10:08:46;;;;;;;;;;;;;;;24.34;60.90;101894.84;5063916;28;1271;-82
2023/09/05 10:11:11;;;;;;;;;;;;;;;24.49;59.83;101899.28;5058344;28;1951;-83
2023/09/05 10:13:38;;;;;;;;;;;;;;;24.58;59.44;101888.31;5061693;28;1233;-82
2023/09/05 10:16:03;;;;;;;;;;;;;;;24.68;59.26;101890.66;5066655;28;1295;-83
2023/09/05 10:18:30;;;;;;;;;;;;;;;24.76;59.66;101898.47;5056618;28;1446;-83
2023/09/05 10:20:56;;;;;;;;;;;;;;;24.82;59.06;101887.06;5064838;28;1259;-83
2023/09/05 10:23:23;;;;;;;;;;;;;;;24.94;59.40;101894.50;5068328;28;982;-83
2023/09/05 10:25:49;;;;;;;;;;;;;;;25.02;58.58;101886.41;5061948;28;1342;-84
2023/09/05 10:28:14;;;;;;;;;;;;;;;25.08;58.79;101880.34;5065386;28;1091;-83
2023/09/05 10:30:44;;;;;;;;;;;;;;;25.15;57.75;101878.53;5067249;28;1133;-82
2023/09/05 10:33:10;;;;;;;;;;;;;;;25.22;57.53;101882.03;5064956;28;1959;-83
2023/09/05 10:35:35;;;;;;;;;;;;;;;25.30;57.99;101873.94;5069511;28;1113;-83
2023/09/05 10:38:01;;;;;;;;;;;;;;;25.35;56.59;101871.50;5068603;28;1071;-83
2023/09/05 10:40:37;;;;;;;;;;;;;;;25.42;57.03;101876.84;5056046;28;1251;-83
2023/09/05 10:43:03;;;;;;;;;;;;;;;25.54;55.68;101875.25;5064599;28;1017;-82
2023/09/05 10:45:30;;;;;;;;;;;;;;;25.62;55.62;101876.91;5068242;28;1183;-83
2023/09/05 10:48:07;;;;;;;;;;;;;;;25.68;56.85;101873.44;5048297;28;1353;-83
2023/09/05 10:50:52;;;;;;;;;;;;;;;25.76;56.52;101873.31;5046833;28;1370;-83
2023/09/05 10:53:21;;;;;;;;;;;;;;;25.89;56.25;101873.34;5064971;28;1194;-84
2023/09/05 10:55:50;;;;;;;;;;;;;;;26.01;56.12;101875.41;5052371;28;1373;-83
2023/09/05 10:58:34;;;;;;;;;;;;;;;26.12;55.37;101882.78;5064557;28;964;-82
2023/09/05 11:01:00;;;;;;;;;;;;;;;26.12;55.58;101867.66;5066927;28;1137;-82
2023/09/05 11:03:34;;;;;;;;;;;;;;;26.23;55.62;101868.91;5052158;28;1333;-82
2023/09/05 11:06:00;;;;;;;;;;;;;;;26.31;54.50;101865.22;5055340;28;1304;-81
2023/09/05 11:08:27;;;;;;;;;;;;;;;26.40;55.49;101875.44;5063691;28;1098;-83
2023/09/05 11:10:55;;;;;;;;;;;;;;;26.47;54.94;101876.28;5067299;28;1926;-83
2023/09/05 11:13:20;;;;;;;;;;;;;;;26.59;54.09;101878.34;5067548;28;1318;-84
2023/09/05 11:15:45;;;;;;;;;;;;;;;26.63;54.50;101879.56;5049313;28;1291;-82
2023/09/05 11:18:12;;;;;;;;;;;;;;;26.73;54.26;101885.31;5052729;28;1342;-83
2023/09/05 11:20:41;;;;;;;;;;;;;;;26.78;53.96;101887.31;5064206;28;1458;-84
2023/09/05 11:23:10;;;;;;;;;;;;;;;26.87;53.95;101884.25;5057063;28;1338;-83
2023/09/05 11:25:46;;;;;;;;;;;;;;;26.99;53.94;101876.44;5056700;28;1292;-83
2023/09/05 11:28:11;;;;;;;;;;;;;;;27.10;53.68;101877.69;5068005;28;1251;-82
2023/09/05 11:30:37;;;;;;;;;;;;;;;27.18;53.51;101877.44;5059830;28;1355;-83
2023/09/05 11:33:06;;;;;;;;;;;;;;;27.21;52.66;101871.69;5053356;28;1886;-81
2023/09/05 11:35:31;;;;;;;;;;;;;;;27.22;53.13;101874.16;5065501;28;1303;-82
2023/09/05 11:37:57;;;;;;;;;;;;;;;27.26;53.07;101879.88;5065761;28;1542;-83
2023/09/05 11:40:25;;;;;;;;;;;;;;;27.37;52.66;101871.25;5066937;28;1317;-83
2023/09/05 11:43:00;;;;;;;;;;;;;;;27.43;52.32;101872.25;5056971;28;1310;-83
2023/09/05 11:45:30;;;;;;;;;;;;;;;27.50;52.08;101862.38;5063249;28;1245;-83
2023/09/05 11:47:56;;;;;;;;;;;;;;;27.62;52.34;101857.19;5052668;28;1244;-84
2023/09/05 11:50:25;;;;;;;;;;;;;;;27.63;51.14;101858.81;5060900;28;1304;-83
2023/09/05 11:52:53;;;;;;;;;;;;;;;27.57;51.93;101852.47;5065427;28;1901;-84
2023/09/05 11:55:23;;;;;;;;;;;;;;;27.52;50.34;101852.31;5052941;28;1435;-83
2023/09/05 11:57:50;;;;;;;;;;;;;;;27.47;51.17;101850.28;5066676;28;1537;-83
2023/09/05 12:00:16;;;;;;;;;;;;;;;27.53;51.69;101849.44;5053211;28;1340;-82
2023/09/05 12:02:41;;;;;;;;;;;;;;;27.63;51.43;101837.50;5049431;28;1432;-83
2023/09/05 12:05:10;;;;;;;;;;;;;;;27.64;51.89;101833.78;5062075;28;1274;-83
2023/09/05 12:07:36;;;;;;;;;;;;;;;27.75;50.37;101827.81;5062196;28;1263;-83
2023/09/05 12:10:01;;;;;;;;;;;;;;;27.77;51.69;101823.09;5060935;28;1324;-82
2023/09/05 12:12:26;;;;;;;;;;;;;;;27.78;51.40;101825.53;5044729;28;1890;-82
2023/09/05 12:14:53;;;;;;;;;;;;;;;27.78;51.84;101814.06;5057910;28;1168;-84
2023/09/05 12:17:19;;;;;;;;;;;;;;;27.80;50.58;101822.66;5043544;28;1246;-84
2023/09/05 12:19:45;;;;;;;;;;;;;;;27.76;51.25;101816.13;5066646;28;1246;-81
2023/09/05 12:22:18;;;;;;;;;;;;;;;27.81;50.49;101802.94;5054924;28;1356;-84
2023/09/05 12:24:43;;;;;;;;;;;;;;;27.79;48.81;101800.50;5063398;28;1478;-83
2023/09/05 12:27:23;;;;;;;;;;;;;;;27.73;49.56;101806.69;5063851;28;1036;-81
2023/09/05 12:29:49;;;;;;;;;;;;;;;27.73;50.10;101800.56;5047755;28;1187;-83
2023/09/05 12:32:14;;;;;;;;;;;;;;;27.76;50.48;101800.13;5047679;28;1961;-84
2023/09/05 12:34:43;;;;;;;;;;;;;;;27.76;49.63;101805.47;5061664;28;1105;-83
2023/09/05 12:37:08;;;;;;;;;;;;;;;27.76;49.95;101798.28;5055953;28;1465;-82
2023/09/05 12:39:33;;;;;;;;;;;;;;;27.75;49.90;101798.47;5064666;28;1176;-83
2023/09/05 12:41:59;;;;;;;;;;;;;;;27.80;50.30;101801.31;5059782;28;1361;-83
2023/09/05 12:44:28;;;;;;;;;;;;;;;27.82;49.75;101809.94;5058659;28;1110;-83